ヘネラル・ラファエル・ブエルナ国際空港の過去48時間の天気

ヘネラル・ラファエル・ブエルナ国際空港 (Mazatlan / G. Buelna)

現在時刻: 9/25 15:30 MDT (9/25 21:30 UTC) 以下の時間は現地時間です。

過去48時間のMETAR気象情報
時間 風向 風速(m/s) 視程 気温(℃) 湿度(%) 気圧(hPa) 天気現象
25 14:40 西 5 10km以上 32 75 1008.4
25 13:45 西 4 10km以上 32 75 1009
25 12:44 西 3 10km以上 32 75 1010
25 11:45 静穏 0 10km以上 32 71 1010.1
25 10:42 静穏 0 10km以上 30 79 1011
25 09:43 静穏 0 10km以上 30 79 1012
25 08:40 静穏 0 10km以上 28 89 1010
25 07:43 静穏 0 10km以上 27 100 1011
25 06:45 静穏 0 10km以上 26 100 1011
25 05:42 静穏 0 10km以上 26 100 1010.1
25 04:41 静穏 0 10km以上 26 94 1011
25 03:41 静穏 0 10km以上 26 94 1011
25 02:42 静穏 0 10km以上 27 94 1010.4
25 01:42 静穏 0 10km以上 27 94 1012
25 00:41 静穏 0 10km以上 27 94 1013
24 23:43 静穏 0 10km以上 27 94 1012.5
24 22:40 静穏 0 10km以上 27 94 1013
24 21:42 静穏 0 10km以上 28 89 1013
24 20:40 2 10km以上 28 89 1011
24 19:45 静穏 0 10km以上 28 89 1012
24 18:41 北北西 2 10km以上 29 84 1011
24 17:41 北西 5 10km以上 30 79 1010.2
24 16:40 西 4 10km以上 31 75 1011
24 15:42 西北西 4 10km以上 31 75 1011
24 14:43 西 2 10km以上 31 70 1010.4
24 13:42 西 3 10km以上 31 70 1013
24 12:43 静穏 0 10km以上 31 84 1013
24 11:45 静穏 0 10km以上 31 70 1013.4
24 10:40 静穏 0 10km以上 30 79 1014
24 09:40 静穏 0 10km以上 28 89 1014
24 08:45 東北東 1 10km以上 27 89 1013.2
24 07:40 北西 2 10km以上 25 100 1013
24 06:43 北北東 2 10km以上 24 100 1013
24 05:45 東北東 2 10km以上 24 100 1011.9
24 04:42 静穏 0 10km以上 24 100 1013
24 03:43 北北東 2 10km以上 24 100 1013
24 02:47 西南西 7 10km以上 25 89 1013.5
24 02:19 静穏 0 10km以上 26 100 1013
24 01:43 静穏 0 10km以上 27 100 1014
24 00:40 静穏 0 10km以上 27 100 1014
23 23:46 静穏 0 10km以上 27 100 1012.9
23 22:47 静穏 0 10km以上 28 100 1013
23 21:45 静穏 0 10km以上 27 100 1013
23 20:45 静穏 0 10km以上 28 94 1010.6
23 19:40 静穏 0 10km以上 28 89 1011
23 18:46 西北西 5 10km以上 30 79 1010
23 17:44 西北西 5 10km以上 30 79 1008.8
23 16:43 西南西 4 10km以上 31 75 1009
23 15:47 西北西 6 10km以上 31 75 1010
MMMZ 252040Z 27009KT 15SM SCT020 32/27 A2978 RMK SLP084 57023 967 8/400 DSNT TCU NE
MMMZ 251945Z 28007KT 15SM SCT025TCU 32/27 A2979 RMK 8/200
MMMZ 251844Z 28006KT 15SM SCT025TCU 32/27 A2981 RMK 8/200
MMMZ 251745Z 00000KT 15SM BKN025TCU 32/26 A2985 RMK SLP101 57010 983 8/200
MMMZ 251642Z 00000KT 13SM SCT025TCU 30/26 A2986 RMK 8/200
MMMZ 251543Z 00000KT 13SM SCT025TCU 30/26 A2987 RMK 8/200
MMMZ 251440Z 00000KT 12SM FEW020TCU SCT035 28/26 A2987 RMK SLP100 52010 981 8/200
MMMZ 251343Z 00000KT 12SM FEW020TCU SCT035 27/27 A2986 RMK 8/200
MMMZ 251245Z 00000KT 10SM FEW015TCU SCT240 26/26 A2985 RMK 8/202 HZY
MMMZ 251142Z 00000KT 10SM BKN240 26/26 A2984 RMK SLP101 57013 969 8/002 HZY ISOL AC
MMMZ 251041Z 00000KT 10SM FEW090 BKN220 26/25 A2985 RMK 8/032 HZY
MMMZ 250941Z 00000KT 10SM SCT090 BKN220 26/25 A2986 RMK 8/072 HZY
MMMZ 250842Z 00000KT 10SM FEW030 SCT090 BKN240 27/26 A2988 RMK SLP104 57010 951 8/472 HZY
MMMZ 250742Z 00000KT 10SM SCT030 SCT090 BKN240 27/26 A2989 RMK 8/472 HZY
MMMZ 250641Z 00000KT 10SM SCT030 BKN090 BKN240 27/26 A2990 RMK 8/472 HZY
MMMZ 250543Z 00000KT 10SM SCT030 SCT090 BKN240 27/26 A2991 RMK SLP125 52003 954 8/472 HZY
MMMZ 250440Z 00000KT 10SM SCT240 27/26 A2992 RMK 8/002 HZY
MMMZ 250342Z 00000KT 10SM FEW040 SCT240 28/26 A2992 RMK 8/402 HZY
MMMZ 250240Z 36003KT 10SM FEW040 SCT250 28/26 A2990 RMK SLP110 52017 904 8/402
MMMZ 250145Z 00000KT 10SM FEW035 SCT250 28/26 A2987 RMK 8/402
MMMZ 250041Z 33004KT 15SM FEW040 SCT250 29/26 A2985 RMK 8/402 DSNT CB TCU NE
MMMZ 242341Z 32010KT 15SM FEW025 SCT250 30/26 A2985 RMK SLP102 57010 913 8/102 DSNT TCU NE
MMMZ 242240Z 28008KT 15SM FEW025 SCT250 31/26 A2985 RMK 8/402 TCU 1ST QUAD
MMMZ 242142Z 29008KT 15SM FEW025TCU SCT250 31/26 A2986 RMK 8/202 DSNT TCU NE
MMMZ 242043Z 28004KT 15SM FEW025TCU SCT250 31/25 A2988 RMK SLP104 52020 916 8/202
MMMZ 241942Z 28005KT 15SM FEW024TCU SCT250 31/25 A2990 RMK 8/202
MMMZ 241843Z 00000KT 15SM FEW022TCU SCT250 31/28 A2992 RMK 8/202
MMMZ 241745Z 00000KT 15SM FEW018TCU SCT250 31/25 A2994 RMK SLP134 52007 924 8/202
MMMZ 241640Z 00000KT 15SM FEW018TCU SCT250 30/26 A2994 RMK 8/202
MMMZ 241540Z 00000KT 15SM SCT250 28/26 A2993 RMK 8/002 ISOL TCU-CU ALQDS
MMMZ 241445Z 06002KT 15SM SCT250 27/25 A2992 RMK SLP132 52010 914 8/002 ISOL CB-TCU 3QUAD
MMMZ 241340Z 32003KT 14SM BKN250 25/25 A2991 RMK 8/002 CB SW AND ISOL AC
MMMZ 241243Z 02004KT 12SM SCT036 SCT070 BKN240 24/24 A2991 RMK 8/463
MMMZ 241145Z 06004KT 10SM SCT032 SCT090 BKN220 24/24 A2989 RMK SLP119 57013 922 8/463 DSNT LTGICCC NW
MMMZ 241042Z 00000KT 10SM BKN022 BKN070 OVC220 24/24 A2990 RMK 8/463 TSE26
MMMZ 240943Z 02004KT 10SM TS BKN022CB BKN070 OVC220 24/24 A2992 RMK 8/373 OCNL TS LTGICCC 3TH QUAD
MMMZ 240847Z 24013KT 8SM TS BKN022CB BKN070 OVC220 25/23 A2993 RMK SLP135 54000 940 8/373 OCNL TS LTGICCC 3TH QUAD RA B25E32
MMMZ 240819Z 00000KT 10SM TS SCT026CB BKN080 OVC220 26/26 A2991 RMK 8/363 TSB03 OCNL LTCICC 3TH QUAD
MMMZ 240743Z 00000KT 10SM SCT026 BKN080 OVC220 27/27 A2993 RMK 8/463 OCNL LTGICCC S
MMMZ 240640Z 00000KT 10SM SCT026 BKN080 OVC220 27/27 A2993 RMK 8/463
MMMZ 240546Z 00000KT 10SM SCT026 BKN080 OVC220 27/27 A2993 RMK SLP129 52013 919 8/463
MMMZ 240447Z 00000KT 10SM SCT026 BKN080 OVC220 28/28 A2992 RMK 8/463
MMMZ 240345Z 00000KT 10SM SCT030 BKN090 OVC240 27/27 A2990 RMK 8/463 OCNL LTGIC NE
MMMZ 240245Z 00000KT 10SM SCT030 BKN090 OVC240 28/27 A2989 RMK SLP106 52023 908 8/463 FQT LTGIC 3RD QUAD
MMMZ 240140Z 00000KT 11SM FEW030 SCT090 BKN240 28/26 A2984 RMK 8/463 FQT LTGICCC NE AND 2ND QUAD
MMMZ 240046Z 30009KT 15SM FEW090 SCT250 30/26 A2981 RMK 8/063 CB 1ST QUAD ISOL SC
MMMZ 232344Z 30009KT 15SM FEW025 SCT250 30/26 A2981 RMK SLP088 57007 953 8/403 DSNT CB NE TO E
MMMZ 232243Z 25007KT 15SM FEW025 SCT250 31/26 A2980 RMK 8/403 DSNT CB AND TCU 1ST QUAD
MMMZ 232147Z 29011KT 15SM FEW025TCU FEW250 31/26 A2981 RMK 8/202 DSNT TCU NE